Time;durP1;ratioP1;P1;durP2;ratioP2;P2;SDS_P1;SDS_P2;PMS_P1;PMS_P2;Temp;Humidity;BMP_temperature;BMP_pressure;BME280_temperature;BME280_humidity;BME280_pressure;Samples;Min_cycle;Max_cycle;Signal;HPM_P1;HPM_P2
2022/02/09 00:00:38;;;;;;;17.13;5.80;;;;;;;;;;5052195;28;20021;-75
2022/02/09 00:03:14;;;;;;;12.27;5.60;;;;;;;;;;5053241;28;20366;-76
2022/02/09 00:08:09;;;;;;;21.17;8.18;;;;;;;;;;5051128;28;20037;-76
2022/02/09 00:10:36;;;;;;;24.33;8.88;;;;;;;;;;5050899;28;20035;-76
2022/02/09 00:15:57;;;;;;;19.92;9.55;;;;;;;;;;5052286;28;20526;-76
2022/02/09 00:21:13;;;;;;;17.58;7.43;;;;;;;;;;5052448;28;20147;-76
2022/02/09 00:34:26;;;;;;;29.63;11.70;;;;;;;;;;5044916;28;20415;-77
2022/02/09 01:55:36;;;;;;;12.20;4.45;;;;;;;;;;5050234;28;20046;-76
2022/02/09 01:58:03;;;;;;;9.35;4.00;;;;;;;;;;5051280;28;20473;-77
2022/02/09 02:00:28;;;;;;;7.70;3.53;;;;;;;;;;5046997;28;20334;-75
2022/02/09 02:02:56;;;;;;;8.70;3.50;;;;;;;;;;5050448;28;20029;-76
2022/02/09 02:05:22;;;;;;;10.70;3.42;;;;;;;;;;5047099;28;20025;-76
2022/02/09 02:07:53;;;;;;;8.57;4.10;;;;;;;;;;5045296;28;20047;-75
2022/02/09 02:10:28;;;;;;;7.65;3.50;;;;;;;;;;5046249;28;20440;-76
2022/02/09 02:18:13;;;;;;;6.63;3.25;;;;;;;;;;5049295;28;20515;-76
2022/02/09 02:21:38;;;;;;;9.30;4.15;;;;;;;;;;5066989;28;20037;-77
2022/02/09 02:26:11;;;;;;;7.43;2.88;;;;;;;;;;5052225;28;20040;-76
2022/02/09 03:09:23;;;;;;;8.45;3.78;;;;;;;;;;5051450;28;20060;-76
2022/02/09 03:14:13;;;;;;;9.27;3.67;;;;;;;;;;5050819;28;20324;-76
2022/02/09 03:16:43;;;;;;;7.43;3.30;;;;;;;;;;5050297;28;20115;-76
2022/02/09 03:27:27;;;;;;;13.05;3.75;;;;;;;;;;5028420;28;20045;-78
2022/02/09 03:49:05;;;;;;;12.63;2.90;;;;;;;;;;5050064;28;20448;-76
2022/02/09 03:54:40;;;;;;;5.78;2.78;;;;;;;;;;5051354;28;20024;-76
2022/02/09 03:57:22;;;;;;;7.28;2.92;;;;;;;;;;5047515;28;20082;-76
2022/02/09 03:59:47;;;;;;;6.25;2.90;;;;;;;;;;5054300;28;20544;-76
2022/02/09 04:02:13;;;;;;;8.82;2.83;;;;;;;;;;5053040;28;20118;-76
2022/02/09 04:04:38;;;;;;;16.10;3.50;;;;;;;;;;5049834;28;20070;-76
2022/02/09 04:07:05;;;;;;;7.63;2.90;;;;;;;;;;5050614;28;20107;-75
2022/02/09 04:09:33;;;;;;;10.73;2.75;;;;;;;;;;5053046;28;20028;-76
2022/02/09 04:17:48;;;;;;;7.18;2.85;;;;;;;;;;5052770;28;19916;-76
2022/02/09 04:38:47;;;;;;;10.70;3.60;;;;;;;;;;5049239;28;20033;-77
2022/02/09 04:49:21;;;;;;;10.02;3.50;;;;;;;;;;5046142;28;20085;-76
2022/02/09 04:57:02;;;;;;;8.18;3.90;;;;;;;;;;5051336;28;20117;-76
2022/02/09 04:59:42;;;;;;;10.55;4.60;;;;;;;;;;5050914;28;20029;-76
2022/02/09 05:27:01;;;;;;;8.27;3.65;;;;;;;;;;5047022;28;20029;-76
2022/02/09 05:29:30;;;;;;;11.02;4.60;;;;;;;;;;5047214;28;20024;-77
2022/02/09 05:31:56;;;;;;;14.75;5.45;;;;;;;;;;5046180;28;20555;-77
2022/02/09 05:34:21;;;;;;;9.77;3.40;;;;;;;;;;5047158;28;20039;-77
2022/02/09 05:36:47;;;;;;;8.65;3.50;;;;;;;;;;5048527;28;20025;-77
2022/02/09 05:39:14;;;;;;;6.97;2.97;;;;;;;;;;5047257;28;20243;-76
2022/02/09 05:41:45;;;;;;;6.90;2.90;;;;;;;;;;5047525;28;20029;-77
2022/02/09 05:44:13;;;;;;;7.18;3.78;;;;;;;;;;5042842;28;20443;-77
2022/02/09 05:51:52;;;;;;;11.07;5.30;;;;;;;;;;5040054;28;20021;-76
2022/02/09 05:54:59;;;;;;;7.57;4.53;;;;;;;;;;5047459;28;20032;-77
2022/02/09 05:57:26;;;;;;;7.78;3.97;;;;;;;;;;5048480;28;20397;-77
2022/02/09 05:59:51;;;;;;;9.98;3.75;;;;;;;;;;5044418;28;20162;-77
2022/02/09 06:02:19;;;;;;;11.15;3.00;;;;;;;;;;5047378;28;20116;-77
2022/02/09 06:04:45;;;;;;;10.38;3.67;;;;;;;;;;5046065;28;20413;-77
2022/02/09 06:07:13;;;;;;;8.15;3.58;;;;;;;;;;5045721;28;20086;-77
2022/02/09 06:09:39;;;;;;;5.80;3.10;;;;;;;;;;5046448;28;20060;-75
2022/02/09 06:19:53;;;;;;;7.55;3.15;;;;;;;;;;5045497;28;20106;-76
2022/02/09 06:22:19;;;;;;;12.27;3.90;;;;;;;;;;5046256;28;20024;-76
2022/02/09 06:24:45;;;;;;;5.40;3.20;;;;;;;;;;5046140;28;20021;-75
2022/02/09 06:27:12;;;;;;;11.25;5.78;;;;;;;;;;5047280;28;20514;-76
2022/02/09 06:29:39;;;;;;;16.58;9.00;;;;;;;;;;5043375;28;20044;-76
2022/02/09 06:32:09;;;;;;;20.77;10.88;;;;;;;;;;5046269;28;20043;-75
2022/02/09 06:34:36;;;;;;;20.17;10.15;;;;;;;;;;5045386;28;20071;-76
2022/02/09 06:37:12;;;;;;;34.72;16.02;;;;;;;;;;5046392;28;20050;-76
2022/02/09 06:39:38;;;;;;;24.65;11.48;;;;;;;;;;5044520;28;20036;-75
2022/02/09 06:42:03;;;;;;;35.92;15.82;;;;;;;;;;5042105;28;20103;-76
2022/02/09 06:44:32;;;;;;;24.35;11.30;;;;;;;;;;5046200;28;20506;-76
2022/02/09 06:46:58;;;;;;;33.90;14.82;;;;;;;;;;5045278;28;20493;-76
2022/02/09 06:49:24;;;;;;;26.50;10.40;;;;;;;;;;5046869;28;20135;-75
2022/02/09 06:51:49;;;;;;;27.42;8.57;;;;;;;;;;5047420;28;20059;-75
2022/02/09 06:54:24;;;;;;;10.98;4.75;;;;;;;;;;5048424;28;20021;-75
2022/02/09 07:01:47;;;;;;;28.17;10.15;;;;;;;;;;5049560;28;20386;-75
2022/02/09 07:04:15;;;;;;;16.25;6.00;;;;;;;;;;5048818;28;20033;-75
2022/02/09 07:06:40;;;;;;;11.70;5.45;;;;;;;;;;5046067;28;20025;-75
2022/02/09 07:09:06;;;;;;;14.88;5.25;;;;;;;;;;5050706;28;20025;-75
2022/02/09 07:11:36;;;;;;;18.35;6.97;;;;;;;;;;5049829;28;20078;-75
2022/02/09 07:14:02;;;;;;;16.20;7.50;;;;;;;;;;5048392;28;20021;-75
2022/02/09 07:16:31;;;;;;;17.67;6.28;;;;;;;;;;5047803;28;20029;-74
2022/02/09 07:18:56;;;;;;;8.57;4.60;;;;;;;;;;5050027;28;20025;-74
2022/02/09 07:21:30;;;;;;;7.97;4.03;;;;;;;;;;5048557;28;20119;-74
2022/02/09 07:23:58;;;;;;;9.98;4.78;;;;;;;;;;5052183;28;20505;-74
2022/02/09 07:26:29;;;;;;;15.05;6.80;;;;;;;;;;5050128;28;20572;-74
2022/02/09 07:28:56;;;;;;;16.10;7.43;;;;;;;;;;5050537;28;20481;-75
2022/02/09 07:31:22;;;;;;;11.15;6.25;;;;;;;;;;5065065;28;20425;-74
2022/02/09 07:33:53;;;;;;;10.38;4.35;;;;;;;;;;5049933;28;20108;-74
2022/02/09 07:36:18;;;;;;;10.25;3.75;;;;;;;;;;5051402;28;20036;-74
2022/02/09 07:38:44;;;;;;;9.00;4.25;;;;;;;;;;5065167;28;20029;-74
2022/02/09 07:41:10;;;;;;;8.38;3.70;;;;;;;;;;5049157;28;20055;-74
2022/02/09 07:43:45;;;;;;;9.27;4.25;;;;;;;;;;5053237;28;20025;-75
2022/02/09 07:56:17;;;;;;;14.23;6.53;;;;;;;;;;5050450;28;20517;-75
2022/02/09 07:58:42;;;;;;;13.77;6.93;;;;;;;;;;5064093;28;20052;-75
2022/02/09 08:01:10;;;;;;;15.55;6.75;;;;;;;;;;5063179;28;20509;-76
2022/02/09 08:03:36;;;;;;;16.45;5.82;;;;;;;;;;5049437;28;20101;-75
2022/02/09 08:06:03;;;;;;;13.07;6.80;;;;;;;;;;5051473;28;20025;-75
2022/02/09 08:08:32;;;;;;;13.68;5.28;;;;;;;;;;5048684;28;20408;-75
2022/02/09 08:11:10;;;;;;;9.73;4.68;;;;;;;;;;5046944;28;20667;-75
2022/02/09 08:27:37;;;;;;;17.52;6.25;;;;;;;;;;5047962;28;20535;-74
2022/02/09 08:32:54;;;;;;;18.60;7.18;;;;;;;;;;5047294;28;20130;-74
2022/02/09 08:35:20;;;;;;;23.90;10.10;;;;;;;;;;5047143;28;20158;-74
2022/02/09 08:37:46;;;;;;;23.65;10.50;;;;;;;;;;5046932;28;20495;-74
2022/02/09 08:40:16;;;;;;;23.75;10.15;;;;;;;;;;5049172;28;20096;-74
2022/02/09 08:42:42;;;;;;;19.58;9.88;;;;;;;;;;5043264;28;20031;-74
2022/02/09 08:45:09;;;;;;;25.73;9.98;;;;;;;;;;5043784;28;20361;-73
2022/02/09 08:47:35;;;;;;;30.98;12.43;;;;;;;;;;5048796;28;20017;-74
2022/02/09 08:50:02;;;;;;;28.00;12.57;;;;;;;;;;5048895;28;20028;-74
2022/02/09 08:52:27;;;;;;;26.80;13.02;;;;;;;;;;5048314;28;20021;-74
2022/02/09 08:54:55;;;;;;;29.52;13.45;;;;;;;;;;5048745;28;20079;-74
2022/02/09 08:57:21;;;;;;;29.77;14.32;;;;;;;;;;5047222;28;20025;-73
2022/02/09 08:59:49;;;;;;;26.42;13.15;;;;;;;;;;5048628;28;20017;-74
2022/02/09 09:02:18;;;;;;;26.23;13.02;;;;;;;;;;5062795;28;20056;-74
2022/02/09 09:04:52;;;;;;;29.08;13.25;;;;;;;;;;5045883;28;20056;-75
2022/02/09 09:07:24;;;;;;;31.30;14.40;;;;;;;;;;5048437;28;20491;-74
2022/02/09 09:10:10;;;;;;;27.95;13.88;;;;;;;;;;5046128;28;20063;-75
2022/02/09 10:02:41;;;;;;;19.60;8.77;;;;;;;;;;5046012;28;20097;-73
2022/02/09 10:30:54;;;;;;;14.18;6.00;;;;;;;;;;5051241;28;20040;-74
2022/02/09 10:33:23;;;;;;;14.88;6.50;;;;;;;;;;5048631;28;20025;-74
2022/02/09 10:36:01;;;;;;;13.20;6.70;;;;;;;;;;5050252;28;20013;-75
2022/02/09 10:38:33;;;;;;;16.90;6.80;;;;;;;;;;5048620;28;20024;-75
2022/02/09 10:41:12;;;;;;;9.65;6.30;;;;;;;;;;5044112;28;20029;-75
2022/02/09 10:43:39;;;;;;;13.05;5.72;;;;;;;;;;5047339;28;20029;-75
2022/02/09 10:46:22;;;;;;;15.85;6.40;;;;;;;;;;5049212;28;20528;-75
2022/02/09 10:51:51;;;;;;;15.57;6.25;;;;;;;;;;5051272;28;20075;-75
2022/02/09 10:54:17;;;;;;;11.68;5.32;;;;;;;;;;5052809;28;20033;-74
2022/02/09 10:56:47;;;;;;;16.42;5.80;;;;;;;;;;5067394;28;20021;-75
2022/02/09 10:59:15;;;;;;;12.05;6.10;;;;;;;;;;5050525;28;20032;-76
2022/02/09 11:01:43;;;;;;;12.23;5.82;;;;;;;;;;5050683;28;20603;-75
2022/02/09 11:04:10;;;;;;;12.80;5.93;;;;;;;;;;5050634;28;20086;-75
2022/02/09 11:06:39;;;;;;;14.73;7.05;;;;;;;;;;5047900;28;20271;-76
2022/02/09 11:09:07;;;;;;;12.40;5.57;;;;;;;;;;5050584;28;20012;-75
2022/02/09 11:11:37;;;;;;;10.45;5.60;;;;;;;;;;5048585;28;20021;-75
2022/02/09 11:14:04;;;;;;;10.93;5.05;;;;;;;;;;5049718;28;20025;-75
2022/02/09 11:16:31;;;;;;;11.13;5.93;;;;;;;;;;5051898;28;20052;-75
2022/02/09 11:18:57;;;;;;;14.50;6.20;;;;;;;;;;5050844;28;20024;-74
2022/02/09 11:21:36;;;;;;;10.80;5.35;;;;;;;;;;5043545;28;20029;-75
2022/02/09 11:24:23;;;;;;;12.43;6.40;;;;;;;;;;5045789;28;20482;-75
2022/02/09 11:32:07;;;;;;;49.40;12.57;;;;;;;;;;5047716;28;20064;-74
2022/02/09 11:34:52;;;;;;;13.93;5.45;;;;;;;;;;5048624;28;20021;-76
2022/02/09 11:37:26;;;;;;;9.52;4.18;;;;;;;;;;5065368;28;20021;-75
2022/02/09 11:39:55;;;;;;;12.13;4.20;;;;;;;;;;5051220;28;20035;-75
2022/02/09 11:42:45;;;;;;;10.03;3.90;;;;;;;;;;5049345;28;20570;-76
2022/02/09 11:51:44;;;;;;;7.47;3.42;;;;;;;;;;5027265;28;20032;-74
2022/02/09 12:00:36;;;;;;;9.52;3.80;;;;;;;;;;5051200;28;20029;-76
2022/02/09 12:19:51;;;;;;;18.85;2.88;;;;;;;;;;5049460;28;20082;-77
2022/02/09 12:22:24;;;;;;;7.50;2.53;;;;;;;;;;5048646;28;20086;-77
2022/02/09 12:24:59;;;;;;;12.35;2.35;;;;;;;;;;5049817;28;20379;-77
2022/02/09 12:27:27;;;;;;;7.45;3.15;;;;;;;;;;5049537;28;20024;-77
2022/02/09 12:30:12;;;;;;;10.95;2.55;;;;;;;;;;5050406;28;20409;-76
2022/02/09 12:32:38;;;;;;;7.25;1.95;;;;;;;;;;5046976;28;20029;-77
2022/02/09 12:35:09;;;;;;;7.35;2.17;;;;;;;;;;5050624;28;20024;-77
2022/02/09 12:37:39;;;;;;;4.00;2.15;;;;;;;;;;5049786;28;20025;-77
2022/02/09 12:40:18;;;;;;;6.65;2.13;;;;;;;;;;5042301;28;20033;-77
2022/02/09 12:42:48;;;;;;;5.03;2.22;;;;;;;;;;5047479;28;20112;-77
2022/02/09 12:45:21;;;;;;;6.05;2.33;;;;;;;;;;5052114;28;20029;-77
2022/02/09 12:47:47;;;;;;;3.78;2.47;;;;;;;;;;5046863;28;20845;-77
2022/02/09 12:50:26;;;;;;;5.13;2.40;;;;;;;;;;5050984;28;20162;-76
2022/02/09 12:52:53;;;;;;;12.23;2.53;;;;;;;;;;5064681;28;20020;-76
2022/02/09 12:55:24;;;;;;;14.75;2.75;;;;;;;;;;5050079;28;20056;-76
2022/02/09 12:57:53;;;;;;;5.72;2.63;;;;;;;;;;5051191;28;20032;-76
2022/02/09 13:00:32;;;;;;;6.78;2.38;;;;;;;;;;5049469;28;20025;-76
2022/02/09 13:03:09;;;;;;;16.60;3.17;;;;;;;;;;5048815;28;20523;-76
2022/02/09 13:05:43;;;;;;;6.78;2.35;;;;;;;;;;5051110;28;20060;-76
2022/02/09 13:08:08;;;;;;;6.63;2.60;;;;;;;;;;5049659;28;20021;-76
2022/02/09 13:10:37;;;;;;;7.03;2.60;;;;;;;;;;5049590;28;20121;-76
2022/02/09 13:13:09;;;;;;;11.73;3.42;;;;;;;;;;5048886;28;20138;-75
2022/02/09 13:15:45;;;;;;;4.63;2.55;;;;;;;;;;5049312;28;20036;-76
2022/02/09 14:02:52;;;;;;;6.57;3.17;;;;;;;;;;5048777;28;20036;-76
2022/02/09 14:03:52;;;;;;;8.85;2.72;;;;;;;;;;5047924;28;19939;-75
2022/02/09 14:34:20;;;;;;;7.53;2.72;;;;;;;;;;5040358;28;20378;-75
2022/02/09 14:55:05;;;;;;;7.03;3.95;;;;;;;;;;5051156;28;20044;-75
2022/02/09 14:57:38;;;;;;;10.80;4.43;;;;;;;;;;5049116;28;20360;-77
2022/02/09 15:00:10;;;;;;;11.95;5.20;;;;;;;;;;5062299;28;20029;-76
2022/02/09 15:03:26;;;;;;;8.15;4.78;;;;;;;;;;5047972;28;20033;-76
2022/02/09 15:10:34;;;;;;;9.95;4.72;;;;;;;;;;5046765;28;20032;-76
2022/02/09 15:13:59;;;;;;;7.75;4.28;;;;;;;;;;5066957;28;20102;-76
2022/02/09 15:23:23;;;;;;;8.05;3.13;;;;;;;;;;5052497;28;20049;-76
2022/02/09 15:25:49;;;;;;;5.45;3.08;;;;;;;;;;5050429;28;20036;-76
2022/02/09 15:28:14;;;;;;;29.65;12.88;;;;;;;;;;5043579;28;20030;-75
2022/02/09 15:30:50;;;;;;;23.58;10.10;;;;;;;;;;5048430;28;20033;-76
2022/02/09 15:33:23;;;;;;;13.77;6.25;;;;;;;;;;5049442;28;20116;-76
2022/02/09 15:35:55;;;;;;;17.42;7.25;;;;;;;;;;5052485;28;20167;-75
2022/02/09 15:38:24;;;;;;;15.52;8.00;;;;;;;;;;5052420;28;20059;-76
2022/02/09 15:41:42;;;;;;;16.63;7.45;;;;;;;;;;5050682;28;20036;-73
2022/02/09 15:56:18;;;;;;;13.23;5.72;;;;;;;;;;5053453;28;20500;-77
2022/02/09 16:10:45;;;;;;;16.80;3.42;;;;;;;;;;5053430;28;20037;-76
2022/02/09 16:19:40;;;;;;;15.88;4.38;;;;;;;;;;5067426;28;20040;-76
2022/02/09 16:24:28;;;;;;;14.30;3.22;;;;;;;;;;5048608;28;20044;-75
2022/02/09 16:48:32;;;;;;;89.78;23.58;;;;;;;;;;5049115;28;20547;-75
2022/02/09 16:51:12;;;;;;;19.42;7.60;;;;;;;;;;5050597;28;20539;-76
2022/02/09 16:54:01;;;;;;;89.85;19.20;;;;;;;;;;5049377;28;20040;-76
2022/02/09 17:20:47;;;;;;;14.35;6.88;;;;;;;;;;5049000;28;20040;-76
2022/02/09 17:23:12;;;;;;;18.65;6.30;;;;;;;;;;5049460;28;20024;-75
2022/02/09 17:25:38;;;;;;;18.48;8.07;;;;;;;;;;5050425;28;20021;-76
2022/02/09 17:28:05;;;;;;;14.48;7.40;;;;;;;;;;5049398;28;20060;-76
2022/02/09 17:35:30;;;;;;;103.20;28.42;;;;;;;;;;5048765;28;20040;-76
2022/02/09 17:55:21;;;;;;;17.42;10.10;;;;;;;;;;5045463;28;20072;-76
2022/02/09 17:56:55;;;;;;;42.63;22.23;;;;;;;;;;5041085;28;20063;-76
2022/02/09 17:59:24;;;;;;;25.23;12.23;;;;;;;;;;5040815;28;20466;-76
2022/02/09 18:01:50;;;;;;;17.63;8.95;;;;;;;;;;5045598;28;20029;-75
2022/02/09 18:04:18;;;;;;;29.38;16.10;;;;;;;;;;5045558;28;20035;-73
2022/02/09 18:06:52;;;;;;;32.35;15.55;;;;;;;;;;5043419;28;20025;-71
2022/02/09 18:09:25;;;;;;;23.48;12.95;;;;;;;;;;5044602;28;20421;-76
2022/02/09 18:12:14;;;;;;;29.90;14.40;;;;;;;;;;5046466;28;20035;-75
2022/02/09 18:31:09;;;;;;;15.63;7.05;;;;;;;;;;5043911;28;20058;-75
2022/02/09 19:03:30;;;;;;;9.63;5.40;;;;;;;;;;5048985;28;20113;-76
2022/02/09 19:06:02;;;;;;;8.93;5.10;;;;;;;;;;5049762;28;20021;-75
2022/02/09 19:27:14;;;;;;;12.25;6.68;;;;;;;;;;5049676;28;20083;-75
2022/02/09 19:40:44;;;;;;;5.60;4.20;;;;;;;;;;5048776;28;20044;-76
2022/02/09 19:48:35;;;;;;;417.77;56.83;;;;;;;;;;5048595;28;20029;-76
2022/02/09 19:54:04;;;;;;;541.83;75.72;;;;;;;;;;5046345;28;20346;-76
2022/02/09 19:56:30;;;;;;;375.90;46.55;;;;;;;;;;5047644;28;20041;-77
2022/02/09 19:59:09;;;;;;;756.72;105.72;;;;;;;;;;5044652;28;20035;-76
2022/02/09 20:01:36;;;;;;;285.58;50.92;;;;;;;;;;5050961;28;20093;-76
2022/02/09 20:04:06;;;;;;;341.42;73.88;;;;;;;;;;5046069;28;20036;-76
2022/02/09 20:06:32;;;;;;;24.65;9.90;;;;;;;;;;5048459;28;20138;-75
2022/02/09 20:08:59;;;;;;;51.53;20.15;;;;;;;;;;5049396;28;20501;-76
2022/02/09 20:11:26;;;;;;;37.00;14.90;;;;;;;;;;5048454;28;20032;-76
2022/02/09 20:13:53;;;;;;;23.65;10.55;;;;;;;;;;5047559;28;20053;-75
2022/02/09 20:16:24;;;;;;;23.42;12.45;;;;;;;;;;5049268;28;20385;-76
2022/02/09 20:18:53;;;;;;;22.25;11.90;;;;;;;;;;5043093;28;20039;-76
2022/02/09 20:21:22;;;;;;;14.73;8.88;;;;;;;;;;5063137;28;20024;-76
2022/02/09 20:23:53;;;;;;;16.35;8.63;;;;;;;;;;5063510;28;20029;-76
2022/02/09 20:26:23;;;;;;;15.43;7.80;;;;;;;;;;5049532;28;20354;-76
2022/02/09 20:29:16;;;;;;;10.57;6.57;;;;;;;;;;5047751;28;20017;-76
2022/02/09 20:34:51;;;;;;;10.43;6.05;;;;;;;;;;5049491;28;20029;-76
2022/02/09 20:37:07;;;;;;;10.77;5.95;;;;;;;;;;5044559;28;20033;-75
2022/02/09 20:39:40;;;;;;;14.57;7.30;;;;;;;;;;5047475;28;20043;-76
2022/02/09 20:42:10;;;;;;;13.93;7.20;;;;;;;;;;5049122;28;20024;-76
2022/02/09 20:44:42;;;;;;;17.67;6.40;;;;;;;;;;5048563;28;20024;-76
2022/02/09 20:47:10;;;;;;;16.85;8.23;;;;;;;;;;5049571;28;20075;-77
2022/02/09 20:49:35;;;;;;;15.35;7.07;;;;;;;;;;5062223;28;20485;-76
2022/02/09 20:52:01;;;;;;;13.50;7.35;;;;;;;;;;5042648;28;20025;-76
2022/02/09 20:54:27;;;;;;;17.63;7.15;;;;;;;;;;5045964;28;20126;-76
2022/02/09 20:56:53;;;;;;;16.48;6.68;;;;;;;;;;5041693;28;20021;-76
2022/02/09 20:59:19;;;;;;;17.52;7.60;;;;;;;;;;5043792;28;20021;-76
2022/02/09 21:04:27;;;;;;;17.08;8.15;;;;;;;;;;5045289;28;20033;-76
2022/02/09 21:10:04;;;;;;;14.07;6.40;;;;;;;;;;5047906;28;20040;-76
2022/02/09 21:15:05;;;;;;;17.13;7.55;;;;;;;;;;5045400;28;20127;-76
2022/02/09 21:25:37;;;;;;;17.70;8.18;;;;;;;;;;5047352;28;20095;-76
2022/02/09 22:48:18;;;;;;;12.85;6.38;;;;;;;;;;5049324;28;20108;-78
2022/02/09 22:50:55;;;;;;;14.70;6.00;;;;;;;;;;5044373;28;20401;-77
2022/02/09 22:56:07;;;;;;;13.82;5.07;;;;;;;;;;5044973;28;20067;-77
2022/02/09 22:58:32;;;;;;;12.25;5.45;;;;;;;;;;5057111;28;20025;-77
2022/02/09 23:01:07;;;;;;;17.00;6.35;;;;;;;;;;5057109;28;20082;-77
2022/02/09 23:06:33;;;;;;;7.00;2.85;;;;;;;;;;5034409;28;20555;-78
2022/02/09 23:14:43;;;;;;;8.27;3.63;;;;;;;;;;5048077;28;20021;-77
2022/02/09 23:17:05;;;;;;;15.50;8.30;;;;;;;;;;5041686;28;20037;-76
2022/02/09 23:22:53;;;;;;;20.25;6.50;;;;;;;;;;5048171;28;20025;-78
